< < Back
Terminal Aerodrome Forecast


Current Version              Previous Versions:   1  2  3  4  5  6  7  8  9  

Terminal Aerodrome Forecast

800
FTUS44 KOHX 021100
TAFBNA
TAF
KBNA 021120Z 0212/0312 01010KT 6SM BR SCT006 OVC015
     FM021500 04010KT P6SM OVC025
     FM021800 05008KT P6SM BKN050
     FM030200 06004KT P6SM OVC025
     FM030900 14005KT 5SM -SHRA BR OVC015=

Latest METAR

515
SAUS70 KWBC 030300 RRM
MTRBNA
METAR KBNA 030253Z 08004KT 10SM OVC041 08/M01 A3029 RMK AO2 SLP259
T00781011 58011 $


USA.gov is the U.S. government's official web portal to all federal, state and local government web resources and services.